Time;durP1;ratioP1;P1;durP2;ratioP2;P2;SDS_P1;SDS_P2;PMS_P1;PMS_P2;Temp;Humidity;BMP_temperature;BMP_pressure;BME280_temperature;BME280_humidity;BME280_pressure;Samples;Min_cycle;Max_cycle;Signal;HPM_P1;HPM_P2
2022/03/18 00:02:02;;;;;;;;;33.50;32.25;;;;;7.97;64.30;102989.44;5068736;28;45537;-77
2022/03/18 00:04:27;;;;;;;;;30.25;27.75;;;;;8.05;64.29;103005.59;5070811;28;44893;-83
2022/03/18 00:06:54;;;;;;;;;25.00;24.25;;;;;8.00;64.68;102991.31;5069002;28;44835;-76
2022/03/18 00:09:19;;;;;;;;;27.25;26.00;;;;;7.99;64.28;103006.16;5057865;28;45409;-83
2022/03/18 00:11:45;;;;;;;;;28.00;24.00;;;;;7.82;64.46;102991.25;5051542;28;45452;-81
2022/03/18 00:14:10;;;;;;;;;25.50;23.75;;;;;7.91;64.65;103003.94;5061567;28;45360;-80
2022/03/18 00:16:36;;;;;;;;;20.00;18.00;;;;;7.88;64.81;103011.66;5055105;28;45203;-83
2022/03/18 00:19:01;;;;;;;;;30.50;27.75;;;;;7.81;65.00;102999.91;5053073;28;46441;-80
2022/03/18 00:21:27;;;;;;;;;31.75;28.50;;;;;7.82;65.13;103013.97;5045071;28;45576;-82
2022/03/18 00:23:53;;;;;;;;;24.50;20.25;;;;;7.79;65.54;103004.19;5046166;28;45446;-80
2022/03/18 00:26:19;;;;;;;;;29.25;26.50;;;;;7.76;65.52;103006.66;5044116;28;45519;-82
2022/03/18 00:28:44;;;;;;;;;37.00;30.00;;;;;7.75;65.09;103009.19;5044748;28;46045;-79
2022/03/18 00:31:09;;;;;;;;;31.50;27.75;;;;;7.65;65.24;102994.66;5044783;28;45381;-80
2022/03/18 00:33:35;;;;;;;;;31.50;31.50;;;;;7.74;65.72;103015.25;5042093;28;46579;-78
2022/03/18 00:36:01;;;;;;;;;27.75;24.25;;;;;7.56;65.11;103002.91;5044072;28;45493;-78
2022/03/18 00:38:27;;;;;;;;;32.25;27.50;;;;;7.61;65.62;103025.03;5044786;28;45488;-82
2022/03/18 00:40:55;;;;;;;;;28.50;28.50;;;;;7.51;65.96;103013.97;5045443;28;45546;-78
2022/03/18 00:43:21;;;;;;;;;27.25;25.50;;;;;7.55;65.78;103029.06;5044667;28;45418;-80
2022/03/18 00:45:47;;;;;;;;;26.75;24.25;;;;;7.48;65.97;103014.69;5044628;28;45501;-81
2022/03/18 00:53:40;;;;;;;;;27.75;27.75;;;;;7.36;65.95;103014.00;5035477;28;45547;-82
2022/03/18 00:56:05;;;;;;;;;36.75;31.50;;;;;7.35;66.62;103017.41;5036595;28;45365;-81
2022/03/18 00:58:31;;;;;;;;;32.50;29.50;;;;;7.36;66.37;103030.66;5034392;28;46168;-80
2022/03/18 01:00:56;;;;;;;;;29.75;28.50;;;;;7.31;66.00;103020.69;5039566;28;45236;-82
2022/03/18 01:03:22;;;;;;;;;33.50;30.00;;;;;7.28;66.46;103016.19;5035985;28;45484;-80
2022/03/18 01:05:47;;;;;;;;;32.00;30.50;;;;;7.31;66.26;103024.22;5033298;28;45399;-79
2022/03/18 01:08:12;;;;;;;;;27.00;24.50;;;;;7.25;66.18;103021.25;5024982;28;48052;-81
2022/03/18 01:10:38;;;;;;;;;33.50;31.00;;;;;7.14;67.11;103001.38;5035724;28;45358;-79
2022/03/18 01:13:04;;;;;;;;;39.75;31.25;;;;;7.24;66.42;103024.69;5038256;28;45515;-81
2022/03/18 01:15:30;;;;;;;;;26.25;24.75;;;;;7.22;66.52;103025.41;5035919;28;45405;-81
2022/03/18 01:17:56;;;;;;;;;25.75;21.00;;;;;7.03;66.98;102995.53;5036589;28;45419;-79
2022/03/18 01:20:21;;;;;;;;;38.50;30.50;;;;;7.16;66.81;103018.09;5035926;28;45488;-78
2022/03/18 01:22:47;;;;;;;;;28.00;24.75;;;;;7.20;66.68;103032.28;5036101;28;45452;-79
2022/03/18 01:25:12;;;;;;;;;31.50;29.25;;;;;7.19;66.47;103036.63;5037691;28;45369;-78
2022/03/18 01:27:38;;;;;;;;;35.25;24.75;;;;;7.18;67.07;103037.47;5035232;28;45823;-78
2022/03/18 01:30:04;;;;;;;;;35.75;30.50;;;;;7.13;66.87;103029.31;5035594;28;45211;-79
2022/03/18 01:32:32;;;;;;;;;31.75;26.75;;;;;7.13;66.75;103031.03;5034417;28;45555;-79
2022/03/18 01:34:57;;;;;;;;;28.75;27.25;;;;;7.11;67.15;103028.31;5036170;28;45277;-78
2022/03/18 01:37:23;;;;;;;;;34.00;27.00;;;;;7.05;66.80;103022.72;5035709;28;45540;-78
2022/03/18 01:39:48;;;;;;;;;31.25;29.00;;;;;7.13;67.58;103036.25;5035030;28;45491;-78
2022/03/18 01:42:14;;;;;;;;;26.50;25.25;;;;;7.10;67.25;103026.53;5027466;28;46044;-79
2022/03/18 01:44:41;;;;;;;;;32.50;28.75;;;;;7.14;67.44;103027.59;5032806;28;45578;-82
2022/03/18 01:47:08;;;;;;;;;38.00;31.50;;;;;7.13;67.32;103031.03;5037969;28;46387;-82
2022/03/18 01:49:33;;;;;;;;;35.00;31.50;;;;;7.12;67.68;103034.47;5039856;28;45418;-83
2022/03/18 01:52:00;;;;;;;;;34.00;29.00;;;;;7.08;67.29;103028.16;5048096;28;45288;-79
2022/03/18 01:54:44;;;;;;;;;39.50;33.75;;;;;7.12;67.79;103039.72;5053761;28;45245;-83
2022/03/18 01:57:10;;;;;;;;;28.25;25.25;;;;;7.07;67.27;103036.84;5044656;28;46530;-82
2022/03/18 01:59:35;;;;;;;;;30.25;25.25;;;;;7.08;67.77;103035.13;5084437;28;45412;-78
2022/03/18 02:02:01;;;;;;;;;29.25;25.25;;;;;7.04;67.71;103039.25;5069331;28;45285;-82
2022/03/18 02:04:26;;;;;;;;;33.50;27.25;;;;;6.98;67.03;103027.50;5076014;28;45584;-82
2022/03/18 02:06:54;;;;;;;;;33.00;27.75;;;;;7.03;67.40;103040.06;5077948;28;45275;-84
2022/03/18 02:09:20;;;;;;;;;29.50;29.50;;;;;6.96;68.00;103026.50;5066011;28;45385;-84
2022/03/18 02:11:46;;;;;;;;;27.75;26.00;;;;;6.92;67.33;103014.06;5075170;28;45433;-82
2022/03/18 02:14:12;;;;;;;;;35.00;30.00;;;;;6.96;67.82;103032.66;5079321;28;45354;-77
2022/03/18 02:16:39;;;;;;;;;32.25;30.00;;;;;6.77;67.81;103004.47;5076326;28;47037;-82
2022/03/18 02:19:08;;;;;;;;;33.75;29.50;;;;;6.94;68.63;103036.00;5079840;28;45258;-81
2022/03/18 02:21:37;;;;;;;;;34.25;30.50;;;;;6.91;68.69;103047.22;5076636;28;45449;-84
2022/03/18 02:24:03;;;;;;;;;34.25;30.50;;;;;6.68;68.39;103013.50;5076617;28;45440;-85
2022/03/18 02:26:29;;;;;;;;;31.00;28.75;;;;;6.85;67.98;103052.09;5073066;28;46183;-83
2022/03/18 02:28:58;;;;;;;;;31.50;31.00;;;;;6.78;68.55;103036.81;5076260;28;45196;-81
2022/03/18 02:31:29;;;;;;;;;45.33;32.33;;;;;6.72;68.82;103034.75;5047710;28;45501;-85
2022/03/18 02:33:55;;;;;;;;;38.50;32.25;;;;;6.75;68.56;103042.78;5045411;28;45285;-80
2022/03/18 02:36:20;;;;;;;;;35.00;32.50;;;;;6.71;69.29;103034.66;5072979;28;44917;-84
2022/03/18 02:38:45;;;;;;;;;31.50;30.00;;;;;6.69;68.51;103033.63;5066025;28;45417;-82
2022/03/18 02:41:13;;;;;;;;;38.25;33.50;;;;;6.62;68.92;103023.63;5060459;28;45388;-80
2022/03/18 02:43:39;;;;;;;;;34.50;32.50;;;;;6.66;69.61;103026.50;5064422;28;45482;-83
2022/03/18 02:46:05;;;;;;;;;40.00;36.67;;;;;6.64;68.97;103019.38;5061753;28;45986;-82
2022/03/18 02:48:31;;;;;;;;;42.67;34.67;;;;;6.58;69.41;103014.66;5067970;28;45359;-85
2022/03/18 02:50:56;;;;;;;;;43.00;37.33;;;;;6.56;69.77;103027.66;5075492;28;46109;-83
2022/03/18 02:53:22;;;;;;;;;38.33;34.33;;;;;6.54;69.13;103036.25;5078069;28;45329;-84
2022/03/18 02:55:48;;;;;;;;;38.00;37.33;;;;;6.50;69.58;103035.16;5072683;28;46067;-82
2022/03/18 02:58:13;;;;;;;;;39.00;34.33;;;;;6.38;68.96;103009.94;5063709;28;45249;-83
2022/03/18 03:00:38;;;;;;;;;46.33;40.33;;;;;6.46;69.49;103041.03;5057654;28;45457;-84
2022/03/18 03:03:04;;;;;;;;;39.00;38.00;;;;;6.43;70.14;103034.72;5059245;28;45445;-85
2022/03/18 03:08:14;;;;;;;;;40.00;37.00;;;;;6.37;70.04;103040.47;5060515;28;45250;-83
2022/03/18 03:10:39;;;;;;;;;41.67;38.00;;;;;6.36;69.79;103038.66;5065808;28;45149;-80
2022/03/18 03:13:10;;;;;;;;;41.67;31.33;;;;;6.33;69.98;103042.78;5066350;28;45145;-84
2022/03/18 03:15:37;;;;;;;;;52.33;41.67;;;;;6.36;70.04;103041.28;5040448;28;48491;-83
2022/03/18 03:18:02;;;;;;;;;50.33;43.33;;;;;6.24;70.93;103028.34;5058538;28;45572;-80
2022/03/18 03:20:28;;;;;;;;;49.00;41.33;;;;;6.33;69.92;103040.16;5060423;28;45520;-83
2022/03/18 03:22:53;;;;;;;;;53.33;41.00;;;;;6.35;70.90;103055.19;5058723;28;45536;-83
2022/03/18 03:25:20;;;;;;;;;56.33;46.00;;;;;6.31;70.45;103049.63;5057102;28;47394;-84
2022/03/18 03:27:46;;;;;;;;;58.67;46.00;;;;;6.35;70.22;103067.38;5057930;28;45360;-83
2022/03/18 03:30:12;;;;;;;;;62.00;50.00;;;;;6.32;70.52;103070.66;5058526;28;45503;-84
2022/03/18 03:32:40;;;;;;;;;56.00;45.33;;;;;6.26;70.50;103067.69;5057979;28;45239;-85
2022/03/18 03:35:06;;;;;;;;;57.67;47.00;;;;;6.21;70.67;103056.91;5085584;27;46424;-83
2022/03/18 03:37:33;;;;;;;;;57.67;48.33;;;;;6.14;70.28;103053.81;5056711;28;45443;-81
2022/03/18 03:39:58;;;;;;;;;56.00;45.33;;;;;6.20;70.21;103064.69;5056891;28;45434;-84
2022/03/18 03:42:23;;;;;;;;;50.00;43.33;;;;;6.21;70.71;103056.91;5057210;28;45642;-85
2022/03/18 03:44:49;;;;;;;;;48.67;41.67;;;;;6.14;70.45;103052.13;5058470;28;46131;-82
2022/03/18 03:47:15;;;;;;;;;51.33;41.33;;;;;6.22;69.83;103058.72;5070342;28;45341;-79
2022/03/18 03:49:41;;;;;;;;;45.33;40.00;;;;;5.99;70.83;103017.16;5058771;28;45336;-83
2022/03/18 03:52:09;;;;;;;;;51.33;46.00;;;;;6.01;69.89;103023.38;5057434;28;45298;-83
2022/03/18 03:54:37;;;;;;;;;57.00;45.67;;;;;6.11;70.59;103054.53;5057329;28;47052;-81
2022/03/18 03:57:03;;;;;;;;;46.00;40.33;;;;;6.17;70.71;103074.97;5054820;28;45483;-82
2022/03/18 03:59:28;;;;;;;;;39.67;38.33;;;;;6.12;71.14;103071.16;5036481;28;45614;-83
2022/03/18 04:01:54;;;;;;;;;47.33;38.33;;;;;6.13;70.82;103076.47;5036561;28;46822;-83
2022/03/18 04:04:19;;;;;;;;;37.33;37.33;;;;;6.08;70.68;103070.06;5035614;28;45569;-82
2022/03/18 04:06:45;;;;;;;;;44.00;39.33;;;;;6.07;70.58;103073.50;5038726;28;45324;-84
2022/03/18 04:09:10;;;;;;;;;51.00;41.00;;;;;6.08;70.10;103090.09;5034594;28;45878;-83
2022/03/18 04:11:36;;;;;;;;;31.00;30.33;;;;;6.06;70.48;103092.63;5038984;28;45394;-86
2022/03/18 04:14:01;;;;;;;;;45.33;39.00;;;;;6.04;71.00;103088.06;5035469;28;46734;-78
2022/03/18 04:16:27;;;;;;;;;35.67;33.33;;;;;6.02;70.65;103082.75;5036864;28;45388;-79
2022/03/18 04:18:52;;;;;;;;;38.33;34.00;;;;;5.98;70.49;103089.50;5036596;28;45830;-78
2022/03/18 04:21:18;;;;;;;;;46.67;35.00;;;;;5.99;70.15;103083.47;5035692;28;45412;-77
2022/03/18 04:23:43;;;;;;;;;31.67;31.67;;;;;5.96;70.52;103090.22;5037313;28;45820;-78
2022/03/18 04:26:08;;;;;;;;;31.67;28.00;;;;;5.94;70.03;103097.94;5036075;28;45520;-77
2022/03/18 04:28:34;;;;;;;;;43.00;38.33;;;;;5.93;70.40;103101.38;5036475;28;45373;-78
2022/03/18 04:30:59;;;;;;;;;43.67;36.67;;;;;5.81;71.02;103087.50;5051404;28;45282;-81
2022/03/18 04:33:25;;;;;;;;;31.67;30.67;;;;;5.89;70.69;103112.44;5038100;28;46789;-82
2022/03/18 04:35:51;;;;;;;;;45.00;39.00;;;;;5.84;70.77;103108.59;5036533;28;45549;-80
2022/03/18 04:38:17;;;;;;;;;40.33;36.00;;;;;5.80;70.12;103100.47;5036871;28;45259;-86
2022/03/18 04:40:42;;;;;;;;;26.67;22.67;;;;;5.73;70.10;103094.84;5036799;28;45415;-81
2022/03/18 04:43:08;;;;;;;;;36.33;30.67;;;;;5.83;70.02;103122.50;5045435;28;46066;-80
2022/03/18 04:45:33;;;;;;;;;39.67;35.67;;;;;5.80;70.78;103129.25;5039888;28;45329;-85
2022/03/18 04:47:58;;;;;;;;;46.33;36.00;;;;;5.81;70.38;103136.28;5037755;28;45194;-84
2022/03/18 04:50:24;;;;;;;;;41.67;36.67;;;;;5.82;70.47;103130.25;5037121;28;45453;-83
2022/03/18 04:52:49;;;;;;;;;37.67;31.33;;;;;5.79;70.42;103119.59;5036349;28;45889;-84
2022/03/18 04:55:15;;;;;;;;;34.33;34.33;;;;;5.78;69.76;103112.56;5036864;28;46919;-82
2022/03/18 04:57:40;;;;;;;;;35.33;33.00;;;;;5.67;70.38;103107.50;5049078;28;45402;-81
2022/03/18 05:00:07;;;;;;;;;45.67;36.33;;;;;5.78;69.97;103123.91;5068541;28;45413;-79
2022/03/18 05:02:35;;;;;;;;;35.67;31.67;;;;;5.77;70.45;103129.97;5076781;28;46253;-81
2022/03/18 05:05:02;;;;;;;;;40.00;32.33;;;;;5.71;69.71;103122.59;5069208;28;45442;-83
2022/03/18 05:07:28;;;;;;;;;39.00;37.00;;;;;5.59;70.29;103100.91;5075208;28;45531;-83
2022/03/18 05:09:54;;;;;;;;;38.67;32.00;;;;;5.50;70.10;103088.94;5073411;28;45159;-80
2022/03/18 05:12:19;;;;;;;;;38.00;36.67;;;;;5.75;70.29;103134.16;5073217;28;45688;-82
2022/03/18 05:14:44;;;;;;;;;39.33;31.67;;;;;5.58;69.83;103117.34;5062751;28;45543;-82
2022/03/18 05:17:11;;;;;;;;;37.00;33.33;;;;;5.72;69.78;103144.44;5078300;28;45191;-79
2022/03/18 05:19:37;;;;;;;;;41.00;38.00;;;;;5.70;69.56;103143.44;5090500;28;45212;-80
2022/03/18 05:22:06;;;;;;;;;28.00;26.67;;;;;5.71;69.63;103145.25;5079007;28;45349;-81
2022/03/18 05:24:31;;;;;;;;;40.00;36.67;;;;;5.69;69.66;103150.38;5077034;28;45302;-81
2022/03/18 05:26:57;;;;;;;;;37.33;37.33;;;;;5.69;69.83;103152.09;5081900;28;45219;-85
2022/03/18 05:29:25;;;;;;;;;28.33;28.33;;;;;5.69;69.42;103150.38;5085294;28;45398;-83
2022/03/18 05:31:51;;;;;;;;;36.67;34.33;;;;;5.45;69.43;103109.53;5079333;28;46194;-82
2022/03/18 05:34:16;;;;;;;;;47.00;37.33;;;;;5.65;69.43;103147.44;5095145;28;45130;-84
2022/03/18 05:36:43;;;;;;;;;34.67;32.00;;;;;5.69;69.06;103163.44;5089951;28;45286;-84
2022/03/18 05:39:09;;;;;;;;;40.33;35.67;;;;;5.68;69.40;103160.72;5095902;28;45439;-80
2022/03/18 05:41:34;;;;;;;;;33.33;30.33;;;;;5.47;69.36;103131.44;5099141;28;46165;-81
2022/03/18 05:44:00;;;;;;;;;37.00;36.00;;;;;5.65;68.99;103161.41;5077657;28;45907;-80
2022/03/18 05:46:25;;;;;;;;;41.00;34.00;;;;;5.36;68.55;103112.44;5092626;28;45242;-84
2022/03/18 05:48:51;;;;;;;;;33.00;31.33;;;;;5.58;68.59;103159.19;5092067;28;44844;-82
2022/03/18 05:51:17;;;;;;;;;34.67;32.67;;;;;5.59;68.65;103163.66;5077812;28;46172;-84
2022/03/18 05:53:43;;;;;;;;;32.33;28.00;;;;;5.62;68.74;103163.84;5070700;28;45388;-81
2022/03/18 05:58:54;;;;;;;;;31.67;27.67;;;;;5.54;68.20;103156.28;5041658;28;45524;-82
2022/03/18 06:01:19;;;;;;;;;27.67;27.67;;;;;5.59;68.42;103157.50;5042125;28;46288;-84
2022/03/18 06:03:45;;;;;;;;;34.00;30.00;;;;;5.36;67.65;103116.75;5043188;28;45949;-82
2022/03/18 06:06:11;;;;;;;;;28.00;26.33;;;;;5.55;68.12;103159.00;5040477;28;46207;-85
2022/03/18 06:14:04;;;;;;;;;34.67;30.00;;;;;5.53;67.85;103170.16;5039986;28;45448;-83
2022/03/18 06:16:30;;;;;;;;;28.67;25.67;;;;;5.37;67.73;103147.31;5039787;28;46827;-82
2022/03/18 06:18:55;;;;;;;;;36.33;32.33;;;;;5.45;67.54;103153.97;5039887;28;45483;-83
2022/03/18 06:21:21;;;;;;;;;31.00;31.00;;;;;5.54;68.00;103166.75;5038625;28;45577;-83
2022/03/18 06:23:47;;;;;;;;;34.67;30.33;;;;;5.52;67.80;103158.81;5038970;28;45452;-81
2022/03/18 06:26:12;;;;;;;;;30.67;29.00;;;;;5.61;67.47;103176.81;5038903;28;45353;-82
2022/03/18 06:28:38;;;;;;;;;29.00;25.00;;;;;5.63;67.16;103175.19;5042315;28;45482;-79
2022/03/18 06:31:03;;;;;;;;;30.67;26.33;;;;;5.60;67.37;103178.53;5049870;28;45422;-80
2022/03/18 06:33:29;;;;;;;;;32.67;29.33;;;;;5.65;67.35;103187.56;5038157;28;45568;-78
2022/03/18 06:35:54;;;;;;;;;29.00;28.00;;;;;5.67;67.30;103183.34;5038301;28;45361;-82
2022/03/18 06:38:20;;;;;;;;;35.33;31.33;;;;;5.63;66.92;103183.03;5041749;28;45483;-82
2022/03/18 06:40:45;;;;;;;;;35.67;32.33;;;;;5.64;67.11;103182.25;5039524;28;45432;-80
2022/03/18 06:43:10;;;;;;;;;36.00;35.67;;;;;5.69;67.13;103192.22;5039634;28;45603;-80
2022/03/18 06:45:36;;;;;;;;;33.67;31.33;;;;;5.71;66.67;103184.47;5038977;28;45276;-80
2022/03/18 06:48:01;;;;;;;;;34.00;30.67;;;;;5.69;67.00;103181.75;5038981;28;45383;-81
2022/03/18 06:50:27;;;;;;;;;35.00;31.00;;;;;5.69;67.05;103178.22;5041908;28;45492;-80
2022/03/18 06:52:52;;;;;;;;;60.33;49.00;;;;;5.64;67.15;103172.69;5038596;28;45314;-84
2022/03/18 06:55:17;;;;;;;;;34.33;34.33;;;;;5.59;66.68;103163.66;5054147;28;45367;-80
2022/03/18 06:57:43;;;;;;;;;30.33;30.33;;;;;5.47;66.70;103147.13;5038244;28;45419;-82
2022/03/18 07:00:09;;;;;;;;;40.33;31.00;;;;;5.66;66.88;103178.00;5042015;28;46523;-80
2022/03/18 07:02:35;;;;;;;;;36.00;33.33;;;;;5.72;66.83;103175.81;5056180;28;45244;-81
2022/03/18 07:05:00;;;;;;;;;32.00;32.00;;;;;5.77;66.41;103183.94;5052813;28;45508;-79
2022/03/18 07:07:27;;;;;;;;;41.67;35.67;;;;;5.77;66.35;103168.25;5050330;28;45174;-79
2022/03/18 07:09:54;;;;;;;;;37.33;33.33;;;;;5.65;65.72;103135.25;5038706;28;45406;-77
2022/03/18 07:12:19;;;;;;;;;32.33;30.33;;;;;5.84;65.94;103168.75;5038357;28;45520;-79
2022/03/18 07:14:44;;;;;;;;;35.00;33.33;;;;;5.97;65.46;103189.75;5039788;28;45359;-83
2022/03/18 07:19:54;;;;;;;;;38.00;34.67;;;;;5.89;65.09;103149.06;5051640;28;45293;-80
2022/03/18 07:22:20;;;;;;;;;39.33;36.00;;;;;5.97;65.10;103139.13;5058597;28;45303;-78
2022/03/18 07:24:46;;;;;;;;;28.33;27.67;;;;;6.14;64.79;103159.44;5019709;28;45276;-82
2022/03/18 07:27:11;;;;;;;;;37.00;34.67;;;;;6.34;64.18;103181.66;5037727;28;45470;-87
2022/03/18 07:29:37;;;;;;;;;33.33;30.00;;;;;6.42;64.26;103174.25;5041882;28;45568;-80
2022/03/18 07:32:03;;;;;;;;;30.67;29.33;;;;;6.35;63.58;103148.50;5043341;28;45367;-81
2022/03/18 07:34:29;;;;;;;;;34.33;32.33;;;;;6.35;63.21;103136.31;5019281;28;45551;-82
2022/03/18 07:36:54;;;;;;;;;46.67;37.00;;;;;6.45;63.17;103146.56;5036880;28;45217;-81
2022/03/18 07:39:19;;;;;;;;;38.33;34.67;;;;;6.61;62.40;103153.69;5038248;28;45438;-83
2022/03/18 07:41:45;;;;;;;;;37.00;33.00;;;;;6.78;63.14;103167.78;5047359;28;45150;-80
2022/03/18 07:44:10;;;;;;;;;39.33;35.33;;;;;6.69;63.23;103131.44;5038669;28;46389;-81
2022/03/18 07:46:37;;;;;;;;;38.00;34.33;;;;;6.91;62.23;103165.13;5036629;28;45313;-78
2022/03/18 07:49:03;;;;;;;;;35.00;32.00;;;;;6.95;61.98;103172.34;5039421;28;46220;-80
2022/03/18 07:51:30;;;;;;;;;35.00;31.33;;;;;6.99;61.93;103168.22;5038425;28;45325;-80
2022/03/18 07:53:56;;;;;;;;;34.33;31.00;;;;;7.04;61.34;103172.91;5036235;28;45371;-81
2022/03/18 07:56:22;;;;;;;;;33.25;31.25;;;;;7.14;60.70;103177.00;5041329;28;45528;-77
2022/03/18 07:58:48;;;;;;;;;26.00;24.00;;;;;7.23;60.52;103176.63;5044283;28;46523;-77
2022/03/18 08:01:13;;;;;;;;;30.33;26.00;;;;;7.30;61.03;103184.06;5038241;28;45295;-79
2022/03/18 08:03:39;;;;;;;;;29.50;27.00;;;;;7.40;60.83;103179.47;5037931;28;45419;-80
2022/03/18 08:06:04;;;;;;;;;24.00;21.75;;;;;7.47;60.35;103178.13;5037763;28;45209;-81
2022/03/18 08:08:33;;;;;;;;;37.25;30.25;;;;;7.42;60.35;103167.34;5037532;28;46457;-80
2022/03/18 08:10:59;;;;;;;;;31.00;29.25;;;;;7.64;59.57;103179.13;5037525;28;45358;-79
2022/03/18 08:13:25;;;;;;;;;27.25;25.75;;;;;7.75;59.48;103187.59;5039974;28;45370;-80
2022/03/18 08:15:51;;;;;;;;;30.50;26.25;;;;;7.83;58.83;103183.72;5047006;28;45380;-78
2022/03/18 08:18:17;;;;;;;;;26.00;24.25;;;;;7.95;58.92;103184.41;5058106;28;45390;-80
2022/03/18 08:20:43;;;;;;;;;31.00;27.25;;;;;7.94;58.12;103164.22;5058353;28;45359;-77
2022/03/18 08:23:11;;;;;;;;;30.50;28.25;;;;;8.14;57.83;103192.50;5058920;28;45300;-83
2022/03/18 08:25:36;;;;;;;;;32.00;28.00;;;;;8.27;57.62;103199.34;5043316;28;45208;-75
2022/03/18 08:28:05;;;;;;;;;26.75;26.50;;;;;8.38;57.60;103200.91;5060475;28;46190;-79
2022/03/18 08:30:31;;;;;;;;;26.75;23.50;;;;;8.50;57.29;103209.44;5052986;28;45395;-80
2022/03/18 08:32:56;;;;;;;;;26.25;26.25;;;;;8.60;56.50;103194.19;5039612;28;45432;-81
2022/03/18 08:35:21;;;;;;;;;28.00;23.25;;;;;8.72;55.86;103193.13;5037607;28;45334;-74
2022/03/18 08:37:59;;;;;;;;;29.00;25.75;;;;;8.84;55.80;103198.13;5039499;28;47289;-80
2022/03/18 08:40:35;;;;;;;;;28.75;27.00;;;;;8.96;56.06;103184.75;5037551;28;45386;-80
2022/03/18 08:43:06;;;;;;;;;27.25;26.25;;;;;9.16;55.08;103185.81;5034945;28;45503;-82
2022/03/18 08:45:32;;;;;;;;;31.50;29.75;;;;;9.31;54.33;103191.88;5035556;28;45477;-84
2022/03/18 08:47:58;;;;;;;;;28.25;28.25;;;;;9.46;53.70;103186.50;5035434;28;46188;-78
2022/03/18 08:50:24;;;;;;;;;25.25;23.25;;;;;9.57;53.68;103183.56;5034673;28;46538;-79
2022/03/18 08:52:52;;;;;;;;;31.50;26.50;;;;;9.75;52.93;103185.31;5043110;28;45486;-76
2022/03/18 08:55:17;;;;;;;;;28.00;27.25;;;;;9.96;53.05;103181.13;5039357;28;45478;-83
2022/03/18 08:57:44;;;;;;;;;26.75;21.25;;;;;11.00;50.86;103181.69;5045251;28;45508;-84
2022/03/18 09:00:13;;;;;;;;;31.75;28.50;;;;;11.75;48.60;103173.47;5057629;28;45887;-87
2022/03/18 09:02:39;;;;;;;;;25.25;23.50;;;;;12.40;46.18;103184.06;5059620;28;45614;-78
2022/03/18 09:05:07;;;;;;;;;22.00;20.50;;;;;12.85;45.52;103154.94;5059538;28;45387;-77
2022/03/18 09:07:33;;;;;;;;;25.75;23.75;;;;;13.77;43.62;103180.22;5056478;28;45320;-82
2022/03/18 09:09:59;;;;;;;;;26.25;25.25;;;;;14.64;42.53;103152.94;5059049;28;45803;-81
2022/03/18 09:12:26;;;;;;;;;25.25;23.50;;;;;18.92;36.04;103182.34;5058388;28;45508;-76
2022/03/18 09:14:52;;;;;;;;;24.50;20.75;;;;;22.83;30.04;103170.44;5059343;28;45283;-81
2022/03/18 09:17:18;;;;;;;;;15.75;15.75;;;;;26.22;25.13;103176.34;5058556;28;46513;-76
2022/03/18 09:19:43;;;;;;;;;20.50;18.75;;;;;28.88;22.19;103181.56;5058954;28;45385;-76
2022/03/18 09:22:09;;;;;;;;;19.67;19.67;;;;;30.89;19.35;103182.72;5058980;28;45438;-79
2022/03/18 09:24:36;;;;;;;;;17.67;17.00;;;;;32.39;18.32;103191.84;5058611;28;45235;-79
2022/03/18 09:27:03;;;;;;;;;21.00;17.33;;;;;33.64;16.00;103177.63;5069002;28;45429;-77
2022/03/18 09:29:29;;;;;;;;;16.67;16.33;;;;;33.43;16.51;103182.34;5068692;28;45466;-81
2022/03/18 09:31:55;;;;;;;;;16.33;15.67;;;;;34.82;15.24;103183.13;5058804;28;45809;-81
2022/03/18 09:34:24;;;;;;;;;26.00;19.00;;;;;35.97;14.96;103175.41;5058499;28;45418;-79
2022/03/18 09:36:56;;;;;;;;;16.25;16.25;;;;;36.69;13.46;103165.38;5051338;28;46274;-82
2022/03/18 09:39:23;;;;;;;;;17.25;15.00;;;;;37.98;12.95;103179.59;5057815;28;45417;-80
2022/03/18 09:41:49;;;;;;;;;13.00;13.00;;;;;38.89;12.50;103182.19;5058505;28;45472;-81
2022/03/18 09:44:14;;;;;;;;;26.50;25.75;;;;;39.18;11.83;103188.31;5057826;28;46108;-76
2022/03/18 09:46:46;;;;;;;;;11.75;11.75;;;;;38.91;11.79;103170.09;5056806;28;45446;-78
2022/03/18 09:49:16;;;;;;;;;11.80;11.80;;;;;38.19;11.08;103190.94;5059325;28;45684;-81
2022/03/18 09:51:42;;;;;;;;;12.60;12.60;;;;;37.53;11.33;103183.66;5057984;28;45409;-79
2022/03/18 09:54:09;;;;;;;;;11.50;11.50;;;;;35.90;12.82;103185.00;5060758;28;45515;-79
2022/03/18 09:56:35;;;;;;;;;12.60;11.00;;;;;36.43;11.74;103168.94;5057306;28;46421;-78
2022/03/18 09:59:01;;;;;;;;;14.75;14.75;;;;;38.13;11.29;103188.63;5059201;28;45440;-80
2022/03/18 10:01:27;;;;;;;;;11.40;9.80;;;;;39.12;9.67;103188.78;5064077;28;45344;-76
2022/03/18 10:03:52;;;;;;;;;11.50;11.50;;;;;39.57;9.26;103174.25;5067003;28;45357;-78
2022/03/18 10:06:27;;;;;;;;;12.75;12.25;;;;;40.09;9.42;103185.81;5062172;28;45909;-80
2022/03/18 10:08:53;;;;;;;;;11.60;10.20;;;;;40.86;9.63;103180.47;5055133;28;45506;-84
2022/03/18 10:11:24;;;;;;;;;13.60;12.00;;;;;41.01;8.91;103168.16;5057692;28;45442;-77
2022/03/18 10:14:03;;;;;;;;;14.60;12.00;;;;;41.68;8.74;103192.81;5057456;28;45472;-80
2022/03/18 10:16:42;;;;;;;;;13.20;11.80;;;;;42.10;8.97;103190.09;5057278;28;45543;-82
2022/03/18 10:19:08;;;;;;;;;13.40;12.00;;;;;42.68;7.63;103198.72;5058252;28;45405;-77
2022/03/18 10:21:55;;;;;;;;;12.80;11.80;;;;;43.33;7.42;103179.78;5057387;28;45508;-78
2022/03/18 10:24:27;;;;;;;;;12.20;10.40;;;;;43.68;7.92;103184.75;5055906;28;45875;-77
2022/03/18 10:27:17;;;;;;;;;14.80;14.00;;;;;44.02;7.01;103182.38;5051478;28;46332;-77
2022/03/18 10:29:46;;;;;;;;;12.00;12.00;;;;;44.22;7.07;103169.34;5057643;28;45445;-77
2022/03/18 10:32:13;;;;;;;;;13.00;10.00;;;;;44.53;6.96;103150.50;5041499;28;45470;-77
2022/03/18 10:37:26;;;;;;;;;10.60;9.60;;;;;44.55;6.45;103163.22;5056963;28;45437;-74
2022/03/18 10:40:00;;;;;;;;;10.60;9.20;;;;;44.24;6.95;103151.50;5058378;28;45518;-79
2022/03/18 10:42:30;;;;;;;;;7.60;7.60;;;;;44.10;6.98;103157.50;5056506;28;45493;-77
2022/03/18 10:45:00;;;;;;;;;13.40;13.40;;;;;44.18;7.44;103112.31;5057972;28;45345;-76
2022/03/18 10:47:37;;;;;;;;;11.20;11.20;;;;;43.49;6.12;103141.25;5056952;28;45547;-83
2022/03/18 10:50:16;;;;;;;;;11.60;11.60;;;;;43.28;7.25;103148.78;5057323;28;45419;-77
2022/03/18 10:52:47;;;;;;;;;12.20;12.20;;;;;43.51;6.69;103148.38;5058350;28;45442;-81
2022/03/18 10:55:29;;;;;;;;;10.20;10.20;;;;;43.60;6.74;103142.97;5057349;28;45294;-77
2022/03/18 10:58:00;;;;;;;;;9.80;9.80;;;;;43.14;7.61;103142.66;5056882;28;46375;-77
2022/03/18 11:00:31;;;;;;;;;11.20;10.60;;;;;42.65;7.04;103146.34;5054590;28;45505;-78
2022/03/18 11:02:58;;;;;;;;;10.60;10.60;;;;;41.66;7.41;103142.25;5056935;28;45531;-80
2022/03/18 11:05:30;;;;;;;;;10.00;9.80;;;;;38.31;8.93;103139.66;5055820;28;45370;-77
2022/03/18 11:07:56;;;;;;;;;9.60;9.60;;;;;35.46;10.16;103120.97;5056826;28;46493;-81
2022/03/18 11:13:09;;;;;;;;;10.40;10.40;;;;;30.17;12.87;103132.88;5056965;28;45246;-72
2022/03/18 11:15:39;;;;;;;;;8.80;7.60;;;;;27.65;14.01;103138.00;5056013;28;45412;-74
2022/03/18 11:18:07;;;;;;;;;10.80;8.80;;;;;25.99;14.78;103120.09;5057569;28;46205;-75
2022/03/18 11:20:33;;;;;;;;;8.40;8.40;;;;;24.81;15.25;103118.38;5055859;28;45419;-72
2022/03/18 11:22:59;;;;;;;;;9.50;8.00;;;;;23.65;16.33;103128.69;5056973;28;45508;-77
2022/03/18 11:25:26;;;;;;;;;8.00;8.00;;;;;22.76;16.94;103114.91;5055512;28;45460;-76
2022/03/18 11:27:54;;;;;;;;;13.75;13.00;;;;;22.18;17.78;103110.69;5056393;28;45249;-81
2022/03/18 11:30:21;;;;;;;;;10.00;10.00;;;;;21.81;18.49;103127.75;5056421;28;45448;-80
2022/03/18 11:33:06;;;;;;;;;10.25;9.75;;;;;21.17;19.53;103114.31;5036869;28;45505;-83
2022/03/18 11:35:49;;;;;;;;;10.25;10.25;;;;;20.73;19.52;103125.81;5036271;28;45323;-83
2022/03/18 11:38:16;;;;;;;;;9.33;9.33;;;;;20.38;19.74;103128.28;5052245;28;46101;-74
2022/03/18 11:41:04;;;;;;;;;10.67;9.00;;;;;20.08;19.98;103135.28;5053058;28;45341;-78